createdAt,value
2022-08-02T00:02:52.655Z,63.56
2022-08-02T00:06:56.157Z,63.65
2022-08-02T00:10:59.463Z,64.60
2022-08-02T00:15:05.473Z,64.22
2022-08-02T00:19:08.471Z,64.02
2022-08-02T00:23:12.081Z,63.66
2022-08-02T00:27:15.396Z,64.14
2022-08-02T00:31:20.337Z,63.50
2022-08-02T00:35:24.096Z,64.04
2022-08-02T00:39:33.835Z,64.48
2022-08-02T00:43:39.155Z,65.39
2022-08-02T00:47:44.223Z,65.83
2022-08-02T00:51:47.387Z,65.82
2022-08-02T00:55:51.064Z,65.23
2022-08-02T00:59:55.705Z,65.70
2022-08-02T01:04:00.683Z,65.32
2022-08-02T01:08:04.273Z,65.51
2022-08-02T01:12:08.869Z,64.53
2022-08-02T01:16:17.978Z,65.90
2022-08-02T01:20:48.456Z,64.64
2022-08-02T01:25:09.490Z,64.84
2022-08-02T01:29:20.311Z,65.59
2022-08-02T01:33:26.865Z,66.07
2022-08-02T01:37:34.482Z,65.93
2022-08-02T01:41:38.786Z,65.81
2022-08-02T01:45:45.835Z,66.04
2022-08-02T01:49:53.594Z,65.90
2022-08-02T01:53:57.600Z,66.59
2022-08-02T01:58:04.911Z,66.00
2022-08-02T02:02:12.862Z,66.47
2022-08-02T02:06:18.417Z,66.77
2022-08-02T02:10:27.341Z,66.41
2022-08-02T02:14:32.293Z,66.16
2022-08-02T02:18:42.613Z,66.07
2022-08-02T02:22:46.043Z,66.35
2022-08-02T02:26:53.618Z,66.50
2022-08-02T02:31:02.705Z,66.34
2022-08-02T02:35:10.369Z,66.39
2022-08-02T02:39:16.257Z,66.39
2022-08-02T02:43:20.203Z,67.81
2022-08-02T02:47:40.889Z,67.22
2022-08-02T02:51:47.761Z,66.68
2022-08-02T02:56:02.347Z,66.38
2022-08-02T03:00:08.513Z,66.69
2022-08-02T03:04:13.591Z,66.52
2022-08-02T03:08:18.787Z,66.26
2022-08-02T03:12:26.872Z,65.43
2022-08-02T03:16:32.258Z,66.11
2022-08-02T03:20:36.440Z,65.04
2022-08-02T03:24:41.021Z,64.93
2022-08-02T03:28:45.491Z,64.79
2022-08-02T03:32:51.135Z,65.32
2022-08-02T03:36:57.849Z,66.66
2022-08-02T03:41:05.147Z,66.76
2022-08-02T03:45:10.501Z,66.95
2022-08-02T03:49:16.975Z,66.97
2022-08-02T03:53:20.863Z,66.98
2022-08-02T03:57:25.841Z,67.31
2022-08-02T04:01:29.567Z,67.25
2022-08-02T04:05:33.153Z,66.90
2022-08-02T04:09:36.925Z,67.49
2022-08-02T04:13:42.004Z,67.51
2022-08-02T04:17:51.644Z,67.21
2022-08-02T04:21:56.135Z,68.25
2022-08-02T04:26:02.360Z,67.61
2022-08-02T04:30:11.230Z,68.14
2022-08-02T04:34:15.762Z,67.72
2022-08-02T04:38:19.506Z,68.57
2022-08-02T04:42:23.909Z,68.10
2022-08-02T04:46:28.708Z,68.63
2022-08-02T04:50:32.528Z,67.69
2022-08-02T04:54:35.657Z,68.13
2022-08-02T04:58:40.729Z,68.11
2022-08-02T05:02:45.855Z,68.42
2022-08-02T05:06:48.826Z,68.93
2022-08-02T05:10:52.278Z,69.52
2022-08-02T05:14:55.678Z,68.82
2022-08-02T05:19:01.067Z,68.54
2022-08-02T05:23:04.743Z,68.06
2022-08-02T05:27:21.232Z,67.78
2022-08-02T05:31:25.320Z,66.08
2022-08-02T05:35:30.761Z,67.28
2022-08-02T05:39:33.778Z,66.87
2022-08-02T05:43:38.792Z,67.60
2022-08-02T05:47:42.390Z,66.93
2022-08-02T05:51:54.137Z,67.28
2022-08-02T05:56:08.389Z,67.55
2022-08-02T06:00:14.966Z,67.28
2022-08-02T06:04:26.628Z,66.72
2022-08-02T06:08:39.591Z,67.06
2022-08-02T06:12:52.742Z,67.90
2022-08-02T06:16:58.388Z,67.37
2022-08-02T06:22:35.683Z,67.48
2022-08-02T06:25:50.595Z,66.73
2022-08-02T06:29:56.442Z,66.96
2022-08-02T06:33:59.963Z,66.87
2022-08-02T06:38:05.212Z,67.32
2022-08-02T06:42:28.030Z,66.98
2022-08-02T06:46:38.035Z,65.91
2022-08-02T06:50:54.822Z,66.63
2022-08-02T06:54:59.516Z,65.09
2022-08-02T06:59:06.219Z,64.30
2022-08-02T07:03:10.135Z,61.65
2022-08-02T07:07:13.473Z,60.11
2022-08-02T07:11:16.840Z,60.25
2022-08-02T07:15:21.815Z,59.49
2022-08-02T07:19:31.903Z,57.42
2022-08-02T07:23:41.443Z,57.38
2022-08-02T07:27:44.570Z,57.26
2022-08-02T07:31:49.648Z,57.62
2022-08-02T07:35:53.154Z,57.98
2022-08-02T07:40:00.201Z,58.06
2022-08-02T07:44:03.817Z,58.20
2022-08-02T07:48:08.710Z,57.16
2022-08-02T07:52:12.838Z,57.90
2022-08-02T07:56:16.967Z,57.41
2022-08-02T08:00:20.921Z,56.87
2022-08-02T08:04:25.794Z,57.60
2022-08-02T08:08:29.081Z,56.59
2022-08-02T08:12:32.671Z,57.58
2022-08-02T08:16:36.480Z,55.91
2022-08-02T08:20:41.934Z,56.01
2022-08-02T08:24:45.925Z,54.59
2022-08-02T08:28:49.051Z,53.59
2022-08-02T08:32:52.642Z,51.73
2022-08-02T08:36:57.821Z,51.55
2022-08-02T08:41:01.489Z,50.98
2022-08-02T08:45:06.321Z,49.67
2022-08-02T08:49:19.095Z,49.63
2022-08-02T08:53:36.463Z,50.79
2022-08-02T08:57:44.022Z,51.49
2022-08-02T09:01:50.059Z,50.15
2022-08-02T09:05:54.020Z,50.19
2022-08-02T09:09:59.073Z,48.64
2022-08-02T09:14:03.777Z,46.46
2022-08-02T09:18:09.053Z,44.11
2022-08-02T09:22:15.703Z,44.12
2022-08-02T09:26:22.827Z,45.24
2022-08-02T09:30:28.265Z,45.99
2022-08-02T09:34:45.749Z,48.77
2022-08-02T09:38:57.297Z,47.18
2022-08-02T09:43:02.365Z,44.80
2022-08-02T09:47:16.738Z,47.03
2022-08-02T09:51:22.321Z,43.11
2022-08-02T09:55:26.821Z,42.05
2022-08-02T09:59:34.180Z,40.13
2022-08-02T10:03:37.485Z,35.42
2022-08-02T10:07:41.360Z,37.63
2022-08-02T10:11:46.853Z,37.09
2022-08-02T10:15:53.154Z,35.41
2022-08-02T10:20:02.938Z,37.26
2022-08-02T10:24:11.396Z,38.47
2022-08-02T10:28:19.367Z,37.62
2022-08-02T10:32:28.794Z,37.96
2022-08-02T10:36:33.800Z,38.27
2022-08-02T10:40:48.621Z,39.02
2022-08-02T10:45:10.226Z,38.38
2022-08-02T10:53:39.945Z,36.51
2022-08-02T10:57:48.697Z,36.73
2022-08-02T11:02:01.628Z,36.94
2022-08-02T11:06:08.112Z,36.65
2022-08-02T11:10:34.334Z,39.10
2022-08-02T11:14:39.623Z,37.76
2022-08-02T11:19:07.376Z,39.25
2022-08-02T11:23:44.437Z,38.21
2022-08-02T11:27:49.198Z,34.25
2022-08-02T11:31:52.772Z,35.16
2022-08-02T11:36:03.571Z,36.00
2022-08-02T11:40:19.516Z,37.08
2022-08-02T11:44:24.340Z,32.84
2022-08-02T11:48:38.997Z,34.21
2022-08-02T11:52:42.871Z,31.24
2022-08-02T11:56:48.067Z,32.72
2022-08-02T12:00:51.196Z,32.25
2022-08-02T12:04:57.909Z,31.68
2022-08-02T12:09:06.112Z,32.83
2022-08-02T12:13:23.155Z,33.10
2022-08-02T12:17:47.566Z,30.94
2022-08-02T12:22:08.070Z,31.48
2022-08-02T12:26:16.028Z,28.82
2022-08-02T12:30:27.894Z,32.27
2022-08-02T12:34:32.953Z,31.56
2022-08-02T12:38:36.604Z,30.36
2022-08-02T12:42:48.344Z,32.32
2022-08-02T12:47:02.201Z,33.70
2022-08-02T12:51:23.664Z,32.87
2022-08-02T12:56:01.999Z,30.65
2022-08-02T12:59:53.898Z,31.74
2022-08-02T13:04:10.470Z,32.33
2022-08-02T13:08:17.338Z,31.42
2022-08-02T13:12:20.953Z,32.06
2022-08-02T13:16:30.657Z,31.50
2022-08-02T13:20:39.101Z,31.64
2022-08-02T13:24:56.048Z,31.32
2022-08-02T13:29:00.537Z,31.57
2022-08-02T13:33:03.829Z,32.22
2022-08-02T13:37:08.973Z,32.17
2022-08-02T13:41:14.091Z,32.03
2022-08-02T13:45:17.631Z,31.39
2022-08-02T13:49:22.031Z,31.42
2022-08-02T13:53:46.349Z,32.56
2022-08-02T13:57:51.426Z,30.00
2022-08-02T14:01:59.177Z,31.06
2022-08-02T14:06:02.866Z,29.35
2022-08-02T14:10:09.802Z,29.99
2022-08-02T14:14:16.287Z,31.67
2022-08-02T14:18:22.388Z,30.98
2022-08-02T14:22:29.254Z,30.28
2022-08-02T14:26:34.178Z,30.27
2022-08-02T14:30:37.538Z,31.68
2022-08-02T14:34:41.011Z,29.01
2022-08-02T14:38:44.458Z,29.85
2022-08-02T14:42:49.468Z,30.62
2022-08-02T14:46:52.896Z,30.44
2022-08-02T14:50:56.542Z,30.41
2022-08-02T14:55:00.001Z,30.03
2022-08-02T14:59:04.973Z,29.08
2022-08-02T15:03:11.061Z,29.10
2022-08-02T15:07:15.852Z,28.42
2022-08-02T15:11:19.430Z,29.76
2022-08-02T15:15:26.759Z,30.25
2022-08-02T15:19:55.999Z,29.86
2022-08-02T15:23:53.760Z,29.21
2022-08-02T15:27:57.411Z,29.33
2022-08-02T15:32:02.440Z,29.50
2022-08-02T15:36:06.614Z,29.39
2022-08-02T15:40:11.474Z,29.61
2022-08-02T15:44:15.051Z,30.22
2022-08-02T15:48:20.820Z,30.14
2022-08-02T15:52:24.456Z,30.07
2022-08-02T15:56:28.109Z,30.39
2022-08-02T16:00:31.329Z,29.35
2022-08-02T16:13:52.755Z,31.24
2022-08-02T16:17:57.637Z,30.76
2022-08-02T16:22:02.415Z,31.17
2022-08-02T16:26:05.439Z,30.96
2022-08-02T16:30:10.653Z,31.01
2022-08-02T16:34:14.119Z,31.13
2022-08-02T16:38:19.161Z,32.11
2022-08-02T16:42:25.532Z,32.00
2022-08-02T16:46:28.845Z,31.25
2022-08-02T16:50:33.528Z,31.78
2022-08-02T16:54:38.581Z,31.98
2022-08-02T16:58:45.018Z,32.02
2022-08-02T17:02:50.915Z,33.73
2022-08-02T17:06:54.758Z,33.57
2022-08-02T17:11:04.142Z,34.04
2022-08-02T17:16:01.122Z,35.78
2022-08-02T17:19:35.257Z,36.29
2022-08-02T17:24:04.047Z,36.80
2022-08-02T17:28:06.992Z,37.94
2022-08-02T17:32:13.213Z,37.68
2022-08-02T17:36:18.307Z,39.04
2022-08-02T17:40:23.865Z,39.35
2022-08-02T17:44:37.451Z,40.04
2022-08-02T17:48:59.246Z,40.11
2022-08-02T17:53:03.084Z,40.96
2022-08-02T17:57:07.243Z,41.98
2022-08-02T18:01:23.536Z,42.37
2022-08-02T18:05:41.564Z,43.19
2022-08-02T18:09:51.125Z,44.27
2022-08-02T18:13:58.742Z,43.01
2022-08-02T18:18:03.284Z,45.20
2022-08-02T18:22:06.828Z,46.35
2022-08-02T18:26:12.453Z,46.24
2022-08-02T18:30:21.645Z,47.33
2022-08-02T18:34:36.086Z,46.96
2022-08-02T18:38:45.653Z,47.51
2022-08-02T18:42:48.956Z,48.16
2022-08-02T18:46:52.419Z,47.80
2022-08-02T18:50:57.132Z,50.17
2022-08-02T18:55:01.014Z,49.82
2022-08-02T18:59:04.675Z,50.17
2022-08-02T19:03:10.981Z,49.49
2022-08-02T19:07:18.704Z,50.58
2022-08-02T19:11:26.370Z,50.83
2022-08-02T19:15:39.175Z,51.27
2022-08-02T19:19:43.192Z,51.39
2022-08-02T19:23:54.361Z,51.05
2022-08-02T19:27:58.650Z,52.33
2022-08-02T19:32:03.097Z,53.29
2022-08-02T19:36:06.980Z,54.58
2022-08-02T19:40:16.100Z,53.80
2022-08-02T19:44:29.271Z,55.79
2022-08-02T19:48:33.533Z,55.23
2022-08-02T19:52:37.064Z,55.07
2022-08-02T19:56:41.722Z,55.36
2022-08-02T20:00:45.114Z,56.04
2022-08-02T20:04:50.391Z,55.78
2022-08-02T20:08:58.974Z,56.75
2022-08-02T20:13:05.406Z,56.87
2022-08-02T20:17:12.154Z,56.19
2022-08-02T20:21:34.156Z,57.13
2022-08-02T20:25:38.406Z,53.93
2022-08-02T20:29:50.226Z,56.54
2022-08-02T20:33:55.408Z,58.55
2022-08-02T20:38:04.762Z,58.14
2022-08-02T20:42:22.681Z,57.92
2022-08-02T20:46:29.104Z,58.52
2022-08-02T20:50:53.237Z,58.68
2022-08-02T20:54:56.621Z,59.57
2022-08-02T20:59:03.973Z,59.70
2022-08-02T21:03:21.345Z,59.63
2022-08-02T21:07:25.816Z,59.83
2022-08-02T21:11:33.669Z,59.44
2022-08-02T21:15:37.893Z,59.64
2022-08-02T21:19:45.394Z,59.99
2022-08-02T21:23:54.849Z,60.55
2022-08-02T21:27:58.821Z,60.54
2022-08-02T21:32:02.270Z,60.78
2022-08-02T21:36:07.370Z,61.37
2022-08-02T21:40:12.256Z,62.45
2022-08-02T21:44:16.761Z,62.33
2022-08-02T21:48:20.556Z,62.82
2022-08-02T21:52:26.155Z,62.18
2022-08-02T21:56:29.722Z,63.52
2022-08-02T22:00:32.881Z,63.41
2022-08-02T22:04:36.984Z,63.59
2022-08-02T22:08:41.382Z,63.30
2022-08-02T22:12:45.578Z,64.14
2022-08-02T22:16:51.186Z,64.97
2022-08-02T22:20:56.230Z,64.57
2022-08-02T22:25:01.811Z,64.08
2022-08-02T22:29:07.446Z,64.90
2022-08-02T22:33:33.045Z,64.94
2022-08-02T22:38:15.211Z,65.53
2022-08-02T22:42:05.843Z,64.54
2022-08-02T22:46:15.635Z,65.55
2022-08-02T22:50:19.918Z,66.86
2022-08-02T22:54:26.741Z,66.77
2022-08-02T22:58:31.632Z,66.85
2022-08-02T23:02:34.726Z,67.20
2022-08-02T23:06:38.243Z,66.81
2022-08-02T23:10:43.295Z,66.94
2022-08-02T23:14:47.850Z,66.86
2022-08-02T23:19:08.750Z,67.03
2022-08-02T23:23:12.027Z,67.69
2022-08-02T23:27:15.610Z,66.59
2022-08-02T23:31:37.476Z,64.36
2022-08-02T23:35:42.105Z,66.97
2022-08-02T23:39:45.207Z,67.80
2022-08-02T23:44:11.228Z,67.38
2022-08-02T23:48:13.411Z,67.23
2022-08-02T23:52:17.260Z,68.37
2022-08-02T23:56:20.461Z,68.91
